createdAt,value
2023-02-12T00:00:13.473Z,103849.00
2023-02-12T00:02:40.107Z,103854.00
2023-02-12T00:05:06.871Z,103848.00
2023-02-12T00:07:33.491Z,103848.00
2023-02-12T00:10:00.287Z,103851.00
2023-02-12T00:12:26.954Z,103841.00
2023-02-12T00:14:53.606Z,103842.00
2023-02-12T00:17:20.251Z,103841.00
2023-02-12T00:19:48.210Z,103847.00
2023-02-12T00:22:14.856Z,103847.00
2023-02-12T00:24:41.470Z,103847.00
2023-02-12T00:27:08.064Z,103841.00
2023-02-12T00:29:34.718Z,103836.00
2023-02-12T00:32:01.388Z,103841.00
2023-02-12T00:34:27.989Z,103845.00
2023-02-12T00:36:54.616Z,103839.00
2023-02-12T00:39:21.260Z,103842.00
2023-02-12T00:41:47.954Z,103834.00
2023-02-12T00:44:14.608Z,103836.00
2023-02-12T00:46:41.319Z,103834.00
2023-02-12T00:49:07.950Z,103841.00
2023-02-12T00:51:34.608Z,103838.00
2023-02-12T00:54:01.216Z,103842.00
2023-02-12T00:56:27.861Z,103848.00
2023-02-12T00:58:54.473Z,103845.00
2023-02-12T01:01:21.269Z,103839.00
2023-02-12T01:03:48.119Z,103839.00
2023-02-12T01:06:14.797Z,103837.00
2023-02-12T01:08:41.392Z,103837.00
2023-02-12T01:11:08.025Z,103841.00
2023-02-12T01:13:35.555Z,103832.00
2023-02-12T01:16:23.559Z,103836.00
2023-02-12T01:18:55.509Z,103838.00
2023-02-12T01:21:27.910Z,103840.00
2023-02-12T01:23:55.283Z,103839.00
2023-02-12T01:26:23.002Z,103844.00
2023-02-12T01:28:52.799Z,103846.00
2023-02-12T01:31:25.555Z,103841.00
2023-02-12T01:33:55.143Z,103839.00
2023-02-12T01:36:23.238Z,103840.00
2023-02-12T01:38:50.544Z,103834.00
2023-02-12T01:41:20.430Z,103843.00
2023-02-12T01:44:06.745Z,103830.00
2023-02-12T01:46:33.452Z,103836.00
2023-02-12T01:49:01.907Z,103830.00
2023-02-12T01:51:29.327Z,103847.00
2023-02-12T01:54:00.403Z,103838.00
2023-02-12T01:56:27.145Z,103836.00
2023-02-12T01:58:55.728Z,103835.00
2023-02-12T02:01:26.469Z,103831.00
2023-02-12T02:03:58.655Z,103826.00
2023-02-12T02:06:34.199Z,103831.00
2023-02-12T02:09:01.918Z,103832.00
2023-02-12T02:11:47.568Z,103833.00
2023-02-12T02:14:32.424Z,103833.00
2023-02-12T02:17:36.487Z,103831.00
2023-02-12T02:20:40.728Z,103832.00
2023-02-12T02:23:31.709Z,103834.00
2023-02-12T02:26:37.276Z,103832.00
2023-02-12T02:29:47.270Z,103829.00
2023-02-12T02:32:25.760Z,103832.00
2023-02-12T02:35:13.042Z,103825.00
2023-02-12T02:37:48.062Z,103831.00
2023-02-12T02:40:25.377Z,103836.00
2023-02-12T02:43:09.281Z,103832.00
2023-02-12T02:45:45.534Z,103829.00
2023-02-12T02:48:15.250Z,103834.00
2023-02-12T02:50:47.649Z,103837.00
2023-02-12T02:53:20.371Z,103831.00
2023-02-12T02:55:51.644Z,103843.00
2023-02-12T02:58:24.078Z,103845.00
2023-02-12T03:00:55.991Z,103836.00
2023-02-12T03:03:34.335Z,103837.00
2023-02-12T03:06:13.116Z,103834.00
2023-02-12T03:08:42.186Z,103827.00
2023-02-12T03:11:19.936Z,103826.00
2023-02-12T03:13:51.012Z,103825.00
2023-02-12T03:16:25.221Z,103831.00
2023-02-12T03:18:58.354Z,103830.00
2023-02-12T03:21:37.294Z,103830.00
2023-02-12T03:24:29.847Z,103826.00
2023-02-12T03:27:03.581Z,103826.00
2023-02-12T03:29:30.815Z,103826.00
2023-02-12T03:32:13.616Z,103822.00
2023-02-12T03:34:51.323Z,103816.00
2023-02-12T03:37:26.436Z,103807.00
2023-02-12T03:40:43.669Z,103823.00
2023-02-12T03:43:16.129Z,103826.00
2023-02-12T03:45:50.417Z,103823.00
2023-02-12T03:48:32.199Z,103818.00
2023-02-12T03:51:04.006Z,103823.00
2023-02-12T03:53:31.730Z,103825.00
2023-02-12T03:56:06.098Z,103828.00
2023-02-12T03:58:35.554Z,103818.00
2023-02-12T04:01:03.440Z,103816.00
2023-02-12T04:03:31.738Z,103814.00
2023-02-12T04:05:58.461Z,103807.00
2023-02-12T04:08:27.222Z,103814.00
2023-02-12T04:11:09.700Z,103811.00
2023-02-12T04:13:52.741Z,103825.00
2023-02-12T04:16:29.732Z,103826.00
2023-02-12T04:18:57.080Z,103825.00
2023-02-12T04:21:38.202Z,103821.00
2023-02-12T04:24:04.794Z,103825.00
2023-02-12T04:26:39.532Z,103831.00
2023-02-12T04:29:27.157Z,103833.00
2023-02-12T04:32:06.035Z,103826.00
2023-02-12T04:34:51.683Z,103826.00
2023-02-12T04:37:26.111Z,103838.00
2023-02-12T04:39:54.059Z,103836.00
2023-02-12T04:42:21.210Z,103831.00
2023-02-12T04:44:47.888Z,103830.00
2023-02-12T04:47:16.699Z,103832.00
2023-02-12T04:49:43.528Z,103831.00
2023-02-12T04:52:10.380Z,103833.00
2023-02-12T04:54:37.322Z,103834.00
2023-02-12T04:57:04.531Z,103837.00
2023-02-12T04:59:31.134Z,103839.00
2023-02-12T05:01:57.791Z,103843.00
2023-02-12T05:04:24.533Z,103841.00
2023-02-12T05:06:51.240Z,103836.00
2023-02-12T05:09:20.425Z,103830.00
2023-02-12T05:11:47.344Z,103838.00
2023-02-12T05:14:14.102Z,103827.00
2023-02-12T05:16:40.794Z,103830.00
2023-02-12T05:19:09.601Z,103832.00
2023-02-12T05:21:38.441Z,103834.00
2023-02-12T05:24:05.714Z,103829.00
2023-02-12T05:26:32.342Z,103835.00
2023-02-12T05:28:59.034Z,103828.00
2023-02-12T05:31:25.904Z,103830.00
2023-02-12T05:33:53.048Z,103830.00
2023-02-12T05:36:22.267Z,103832.00
2023-02-12T05:38:49.715Z,103829.00
2023-02-12T05:41:22.188Z,103824.00
2023-02-12T05:43:49.899Z,103833.00
2023-02-12T05:46:18.132Z,103827.00
2023-02-12T05:48:45.488Z,103829.00
2023-02-12T05:51:20.054Z,103832.00
2023-02-12T05:53:46.674Z,103829.00
2023-02-12T05:56:19.983Z,103837.00
2023-02-12T05:58:52.003Z,103835.00
2023-02-12T06:01:21.812Z,103829.00
2023-02-12T06:03:48.604Z,103828.00
2023-02-12T06:06:15.404Z,103826.00
2023-02-12T06:08:42.180Z,103831.00
2023-02-12T06:11:13.853Z,103833.00
2023-02-12T06:13:41.506Z,103833.00
2023-02-12T06:16:22.945Z,103823.00
2023-02-12T06:18:50.405Z,103828.00
2023-02-12T06:21:17.882Z,103832.00
2023-02-12T06:23:44.939Z,103834.00
2023-02-12T06:26:11.925Z,103825.00
2023-02-12T06:28:38.780Z,103827.00
2023-02-12T06:31:05.983Z,103826.00
2023-02-12T06:33:35.643Z,103838.00
2023-02-12T06:36:04.651Z,103836.00
2023-02-12T06:38:31.281Z,103837.00
2023-02-12T06:41:02.202Z,103843.00
2023-02-12T06:43:28.902Z,103838.00
2023-02-12T06:45:55.892Z,103840.00
2023-02-12T06:48:22.742Z,103845.00
2023-02-12T06:50:49.364Z,103845.00
2023-02-12T06:53:15.985Z,103841.00
2023-02-12T06:55:42.590Z,103839.00
2023-02-12T06:58:09.197Z,103845.00
2023-02-12T07:00:35.944Z,103841.00
2023-02-12T07:03:02.564Z,103848.00
2023-02-12T07:05:29.145Z,103856.00
2023-02-12T07:07:55.865Z,103848.00
2023-02-12T07:10:22.452Z,103850.00
2023-02-12T07:12:49.000Z,103855.00
2023-02-12T07:15:15.846Z,103852.00
2023-02-12T07:17:42.499Z,103854.00
2023-02-12T07:20:09.636Z,103866.00
2023-02-12T07:22:37.163Z,103865.00
2023-02-12T07:25:03.997Z,103860.00
2023-02-12T07:27:30.693Z,103863.00
2023-02-12T07:29:59.169Z,103866.00
2023-02-12T07:32:25.780Z,103878.00
2023-02-12T07:34:52.544Z,103877.00
2023-02-12T07:37:22.722Z,103886.00
2023-02-12T07:39:50.035Z,103882.00
2023-02-12T07:42:17.082Z,103881.00
2023-02-12T07:44:44.804Z,103889.00
2023-02-12T07:47:11.681Z,103887.00
2023-02-12T07:49:38.297Z,103897.00
2023-02-12T07:52:05.111Z,103897.00
2023-02-12T07:54:31.827Z,103891.00
2023-02-12T07:56:58.442Z,103889.00
2023-02-12T07:59:25.110Z,103898.00
2023-02-12T08:01:52.949Z,103882.00
2023-02-12T08:04:22.317Z,103890.00
2023-02-12T08:06:51.615Z,103890.00
2023-02-12T08:09:20.964Z,103894.00
2023-02-12T08:11:48.447Z,103892.00
2023-02-12T08:14:18.237Z,103887.00
2023-02-12T08:16:46.734Z,103892.00
2023-02-12T08:19:20.223Z,103902.00
2023-02-12T08:21:51.924Z,103916.00
2023-02-12T08:24:18.652Z,103910.00
2023-02-12T08:26:45.562Z,103909.00
2023-02-12T08:29:18.800Z,103910.00
2023-02-12T08:31:47.861Z,103902.00
2023-02-12T08:34:28.675Z,103911.00
2023-02-12T08:36:56.595Z,103906.00
2023-02-12T08:39:25.680Z,103906.00
2023-02-12T08:41:55.025Z,103914.00
2023-02-12T08:44:21.936Z,103907.00
2023-02-12T08:46:51.601Z,103913.00
2023-02-12T08:49:21.025Z,103921.00
2023-02-12T08:51:50.236Z,103922.00
2023-02-12T08:54:22.669Z,103917.00
2023-02-12T08:56:49.797Z,103934.00
2023-02-12T08:59:17.090Z,103931.00
2023-02-12T09:01:44.831Z,103924.00
2023-02-12T09:04:18.036Z,103923.00
2023-02-12T09:06:46.525Z,103916.00
2023-02-12T09:09:14.394Z,103913.00
2023-02-12T09:11:41.661Z,103923.00
2023-02-12T09:14:11.506Z,103917.00
2023-02-12T09:16:43.265Z,103924.00
2023-02-12T09:19:12.923Z,103917.00
2023-02-12T09:21:39.782Z,103921.00
2023-02-12T09:24:06.586Z,103913.00
2023-02-12T09:26:33.275Z,103915.00
2023-02-12T09:29:02.675Z,103913.00
2023-02-12T09:31:31.319Z,103912.00
2023-02-12T09:34:01.025Z,103917.00
2023-02-12T09:36:28.461Z,103925.00
2023-02-12T09:38:55.553Z,103914.00
2023-02-12T09:41:42.774Z,103917.00
2023-02-12T09:44:19.234Z,103921.00
2023-02-12T09:46:51.784Z,103924.00
2023-02-12T09:49:43.307Z,103921.00
2023-02-12T09:52:26.837Z,103921.00
2023-02-12T09:54:54.183Z,103913.00
2023-02-12T09:57:31.536Z,103925.00
2023-02-12T10:00:16.456Z,103925.00
2023-02-12T10:02:43.304Z,103911.00
2023-02-12T10:05:24.012Z,103922.00
2023-02-12T10:08:23.891Z,103929.00
2023-02-12T10:11:09.623Z,103928.00
2023-02-12T10:13:45.464Z,103915.00
2023-02-12T10:16:30.310Z,103926.00
2023-02-12T10:19:21.222Z,103917.00
2023-02-12T10:22:00.092Z,103929.00
2023-02-12T10:24:59.262Z,103912.00
2023-02-12T10:27:35.303Z,103927.00
2023-02-12T10:30:13.771Z,103926.00
2023-02-12T10:32:44.662Z,103924.00
2023-02-12T10:35:16.989Z,103930.00
2023-02-12T10:37:45.231Z,103932.00
2023-02-12T10:40:29.982Z,103929.00
2023-02-12T10:42:58.858Z,103939.00
2023-02-12T10:45:33.396Z,103931.00
2023-02-12T10:48:34.970Z,103932.00
2023-02-12T10:51:07.700Z,103927.00
2023-02-12T10:53:38.321Z,103931.00
2023-02-12T10:56:24.825Z,103923.00
2023-02-12T10:58:59.846Z,103923.00
2023-02-12T11:01:34.992Z,103927.00
2023-02-12T11:04:33.164Z,103917.00
2023-02-12T11:07:06.008Z,103930.00
2023-02-12T11:09:48.253Z,103924.00
2023-02-12T11:12:38.334Z,103913.00
2023-02-12T11:15:15.934Z,103915.00
2023-02-12T11:17:45.189Z,103910.00
2023-02-12T11:20:18.007Z,103912.00
2023-02-12T11:23:00.118Z,103911.00
2023-02-12T11:25:30.426Z,103911.00
2023-02-12T11:28:17.109Z,103904.00
2023-02-12T11:31:12.078Z,103909.00
2023-02-12T11:33:39.148Z,103905.00
2023-02-12T11:36:13.053Z,103903.00
2023-02-12T11:38:52.019Z,103906.00
2023-02-12T11:41:37.345Z,103910.00
2023-02-12T11:44:38.120Z,103905.00
2023-02-12T11:47:09.154Z,103891.00
2023-02-12T11:49:53.765Z,103896.00
2023-02-12T11:52:26.863Z,103890.00
2023-02-12T11:55:01.367Z,103884.00
2023-02-12T11:57:49.341Z,103887.00
2023-02-12T12:00:24.882Z,103885.00
2023-02-12T12:03:15.641Z,103891.00
2023-02-12T12:05:49.510Z,103892.00
2023-02-12T12:08:24.939Z,103882.00
2023-02-12T12:11:04.335Z,103886.00
2023-02-12T12:13:37.010Z,103887.00
2023-02-12T12:16:29.612Z,103872.00
2023-02-12T12:19:25.166Z,103878.00
2023-02-12T12:22:03.802Z,103871.00
2023-02-12T12:24:51.112Z,103866.00
2023-02-12T12:28:03.564Z,103863.00
2023-02-12T12:30:45.245Z,103870.00
2023-02-12T12:33:26.608Z,103856.00
2023-02-12T12:36:27.235Z,103863.00
2023-02-12T12:39:21.390Z,103857.00
2023-02-12T12:42:21.891Z,103843.00
2023-02-12T12:45:24.167Z,103847.00
2023-02-12T12:48:34.052Z,103838.00
2023-02-12T12:51:18.891Z,103836.00
2023-02-12T12:53:48.154Z,103834.00
2023-02-12T12:56:33.099Z,103830.00
2023-02-12T12:59:02.411Z,103835.00
2023-02-12T13:01:58.257Z,103830.00
2023-02-12T13:05:06.219Z,103832.00
2023-02-12T13:07:38.714Z,103825.00
2023-02-12T13:10:35.505Z,103822.00
2023-02-12T13:13:08.955Z,103820.00
2023-02-12T13:15:38.772Z,103813.00
2023-02-12T13:18:24.247Z,103820.00
2023-02-12T13:21:04.540Z,103813.00
2023-02-12T13:23:54.741Z,103809.00
2023-02-12T13:26:30.750Z,103805.00
2023-02-12T13:29:10.220Z,103809.00
2023-02-12T13:31:49.896Z,103803.00
2023-02-12T13:34:18.748Z,103806.00
2023-02-12T13:36:45.680Z,103805.00
2023-02-12T13:39:40.843Z,103794.00
2023-02-12T13:42:07.437Z,103800.00
2023-02-12T13:44:49.101Z,103796.00
2023-02-12T13:47:37.357Z,103801.00
2023-02-12T13:50:23.412Z,103802.00
2023-02-12T13:52:56.632Z,103800.00
2023-02-12T13:55:34.900Z,103800.00
2023-02-12T13:58:32.414Z,103795.00
2023-02-12T14:01:03.173Z,103802.00
2023-02-12T14:03:31.772Z,103792.00
2023-02-12T14:06:28.656Z,103801.00
2023-02-12T14:09:10.814Z,103793.00
2023-02-12T14:11:50.123Z,103796.00
2023-02-12T14:14:31.078Z,103795.00
2023-02-12T14:16:57.839Z,103787.00
2023-02-12T14:19:40.483Z,103787.00
2023-02-12T14:22:30.915Z,103787.00
2023-02-12T14:25:23.596Z,103784.00
2023-02-12T14:27:55.561Z,103780.00
2023-02-12T14:30:31.403Z,103792.00
2023-02-12T14:33:06.983Z,103796.00
2023-02-12T14:35:35.475Z,103789.00
2023-02-12T14:38:23.804Z,103785.00
2023-02-12T14:40:52.626Z,103784.00
2023-02-12T14:43:57.168Z,103783.00
2023-02-12T14:46:23.964Z,103777.00
2023-02-12T14:48:52.827Z,103783.00
2023-02-12T14:51:34.088Z,103782.00
2023-02-12T14:54:02.252Z,103779.00
2023-02-12T14:56:29.065Z,103771.00
2023-02-12T14:58:58.837Z,103769.00
2023-02-12T15:01:34.718Z,103770.00
2023-02-12T15:04:39.380Z,103767.00
2023-02-12T15:07:13.070Z,103770.00
2023-02-12T15:09:47.587Z,103758.00
2023-02-12T15:12:20.685Z,103759.00
2023-02-12T15:14:56.480Z,103752.00
2023-02-12T15:17:29.912Z,103753.00
2023-02-12T15:20:08.247Z,103753.00
2023-02-12T15:22:40.688Z,103746.00
2023-02-12T15:25:23.602Z,103739.00
2023-02-12T15:27:53.582Z,103745.00
2023-02-12T15:30:26.389Z,103745.00
2023-02-12T15:32:55.965Z,103741.00
2023-02-12T15:35:28.220Z,103736.00
2023-02-12T15:38:00.238Z,103736.00
2023-02-12T15:40:28.520Z,103743.00
2023-02-12T15:43:04.052Z,103741.00
2023-02-12T15:45:33.444Z,103736.00
2023-02-12T15:48:09.049Z,103744.00
2023-02-12T15:50:45.858Z,103737.00
2023-02-12T15:53:13.607Z,103738.00
2023-02-12T15:55:43.895Z,103740.00
2023-02-12T15:58:27.114Z,103742.00
2023-02-12T16:00:56.019Z,103744.00
2023-02-12T16:03:28.915Z,103747.00
2023-02-12T16:06:13.198Z,103746.00
2023-02-12T16:08:49.556Z,103745.00
2023-02-12T16:11:23.340Z,103749.00
2023-02-12T16:13:53.177Z,103743.00
2023-02-12T16:16:24.024Z,103750.00
2023-02-12T16:19:06.760Z,103751.00
2023-02-12T16:21:37.958Z,103753.00
2023-02-12T16:24:06.257Z,103752.00
2023-02-12T16:26:33.035Z,103751.00
2023-02-12T16:28:59.854Z,103747.00
2023-02-12T16:31:27.799Z,103751.00
2023-02-12T16:33:59.483Z,103751.00
2023-02-12T16:36:26.080Z,103755.00
2023-02-12T16:38:57.267Z,103744.00
2023-02-12T16:41:31.198Z,103739.00
2023-02-12T16:44:00.656Z,103742.00
2023-02-12T16:46:32.810Z,103742.00
2023-02-12T16:49:00.730Z,103742.00
2023-02-12T16:51:27.549Z,103736.00
2023-02-12T16:53:57.555Z,103730.00
2023-02-12T16:56:27.076Z,103737.00
2023-02-12T16:58:57.817Z,103735.00
2023-02-12T17:01:30.968Z,103746.00
2023-02-12T17:03:59.130Z,103746.00
2023-02-12T17:06:28.819Z,103746.00
2023-02-12T17:08:56.437Z,103739.00
2023-02-12T17:11:24.162Z,103734.00
2023-02-12T17:13:53.196Z,103741.00
2023-02-12T17:16:30.424Z,103738.00
2023-02-12T17:18:58.807Z,103742.00
2023-02-12T17:21:31.817Z,103742.00
2023-02-12T17:23:58.542Z,103737.00
2023-02-12T17:26:26.677Z,103735.00
2023-02-12T17:28:53.375Z,103737.00
2023-02-12T17:31:20.836Z,103739.00
2023-02-12T17:33:47.682Z,103733.00
2023-02-12T17:36:14.443Z,103733.00
2023-02-12T17:38:41.162Z,103735.00
2023-02-12T17:41:12.152Z,103734.00
2023-02-12T17:43:38.951Z,103719.00
2023-02-12T17:46:14.163Z,103736.00
2023-02-12T17:48:40.880Z,103730.00
2023-02-12T17:51:09.796Z,103738.00
2023-02-12T17:53:36.406Z,103737.00
2023-02-12T17:56:03.343Z,103737.00
2023-02-12T17:58:30.263Z,103738.00
2023-02-12T18:00:57.574Z,103733.00
2023-02-12T18:03:24.535Z,103731.00
2023-02-12T18:05:51.123Z,103737.00
2023-02-12T18:08:17.798Z,103738.00
2023-02-12T18:10:45.704Z,103737.00
2023-02-12T18:13:13.881Z,103738.00
2023-02-12T18:15:41.347Z,103742.00
2023-02-12T18:18:08.691Z,103732.00
2023-02-12T18:20:35.903Z,103744.00
2023-02-12T18:23:03.545Z,103738.00
2023-02-12T18:25:30.198Z,103746.00
2023-02-12T18:27:56.936Z,103744.00
2023-02-12T18:30:23.944Z,103747.00
2023-02-12T18:32:50.569Z,103752.00
2023-02-12T18:35:17.243Z,103749.00
2023-02-12T18:37:43.959Z,103743.00
2023-02-12T18:40:11.573Z,103739.00
2023-02-12T18:42:38.191Z,103749.00
2023-02-12T18:45:05.311Z,103742.00
2023-02-12T18:47:31.966Z,103738.00
2023-02-12T18:49:58.695Z,103741.00
2023-02-12T18:52:25.529Z,103742.00
2023-02-12T18:54:53.180Z,103745.00
2023-02-12T18:57:20.007Z,103749.00
2023-02-12T18:59:46.681Z,103737.00
2023-02-12T19:02:13.985Z,103750.00
2023-02-12T19:04:40.874Z,103746.00
2023-02-12T19:07:07.627Z,103752.00
2023-02-12T19:09:34.414Z,103752.00
2023-02-12T19:12:01.096Z,103742.00
2023-02-12T19:14:28.296Z,103745.00
2023-02-12T19:16:54.954Z,103753.00
2023-02-12T19:19:22.692Z,103754.00
2023-02-12T19:21:49.726Z,103754.00
2023-02-12T19:24:16.909Z,103746.00
2023-02-12T19:26:46.844Z,103744.00
2023-02-12T19:29:14.101Z,103746.00
2023-02-12T19:31:44.380Z,103740.00
2023-02-12T19:34:19.573Z,103736.00
2023-02-12T19:36:47.751Z,103737.00
2023-02-12T19:39:20.542Z,103744.00
2023-02-12T19:41:47.520Z,103732.00
2023-02-12T19:44:18.054Z,103739.00
2023-02-12T19:46:46.109Z,103734.00
2023-02-12T19:49:16.403Z,103727.00
2023-02-12T19:51:43.490Z,103719.00
2023-02-12T19:54:12.493Z,103723.00
2023-02-12T19:56:39.540Z,103728.00
2023-02-12T19:59:06.903Z,103730.00
2023-02-12T20:01:34.707Z,103745.00
2023-02-12T20:04:02.149Z,103739.00
2023-02-12T20:06:35.615Z,103738.00
2023-02-12T20:09:03.598Z,103735.00
2023-02-12T20:11:31.750Z,103736.00
2023-02-12T20:13:58.959Z,103748.00
2023-02-12T20:16:31.242Z,103744.00
2023-02-12T20:19:02.114Z,103744.00
2023-02-12T20:21:29.264Z,103737.00
2023-02-12T20:23:56.687Z,103735.00
2023-02-12T20:26:24.240Z,103743.00
2023-02-12T20:28:51.399Z,103743.00
2023-02-12T20:31:21.340Z,103750.00
2023-02-12T20:33:48.766Z,103744.00
2023-02-12T20:36:15.882Z,103737.00
2023-02-12T20:38:44.939Z,103752.00
2023-02-12T20:41:12.274Z,103744.00
2023-02-12T20:43:39.099Z,103742.00
2023-02-12T20:46:08.777Z,103752.00
2023-02-12T20:48:36.811Z,103750.00
2023-02-12T20:51:08.884Z,103747.00
2023-02-12T20:53:36.199Z,103748.00
2023-02-12T20:56:04.796Z,103738.00
2023-02-12T20:58:31.517Z,103741.00
2023-02-12T21:01:10.024Z,103738.00
2023-02-12T21:03:37.434Z,103740.00
2023-02-12T21:06:04.653Z,103748.00
2023-02-12T21:08:31.486Z,103746.00
2023-02-12T21:11:07.905Z,103740.00
2023-02-12T21:13:34.641Z,103736.00
2023-02-12T21:16:10.648Z,103732.00
2023-02-12T21:18:37.815Z,103737.00
2023-02-12T21:21:07.061Z,103732.00
2023-02-12T21:23:34.805Z,103728.00
2023-02-12T21:26:16.399Z,103724.00
2023-02-12T21:28:44.260Z,103719.00
2023-02-12T21:31:15.500Z,103721.00
2023-02-12T21:33:44.438Z,103720.00
2023-02-12T21:36:16.754Z,103718.00
2023-02-12T21:38:45.470Z,103712.00
2023-02-12T21:41:16.237Z,103714.00
2023-02-12T21:43:44.737Z,103717.00
2023-02-12T21:46:12.175Z,103715.00
2023-02-12T21:48:42.000Z,103724.00
2023-02-12T21:51:26.016Z,103709.00
2023-02-12T21:54:00.849Z,103715.00
2023-02-12T21:56:27.583Z,103722.00
2023-02-12T21:58:55.417Z,103715.00
2023-02-12T22:01:24.912Z,103723.00
2023-02-12T22:03:52.456Z,103720.00
2023-02-12T22:06:22.348Z,103721.00
2023-02-12T22:08:50.117Z,103719.00
2023-02-12T22:11:17.207Z,103718.00
2023-02-12T22:13:44.442Z,103715.00
2023-02-12T22:16:14.416Z,103717.00
2023-02-12T22:18:42.626Z,103715.00
2023-02-12T22:21:13.433Z,103712.00
2023-02-12T22:23:41.293Z,103717.00
2023-02-12T22:26:16.874Z,103715.00
2023-02-12T22:28:45.941Z,103710.00
2023-02-12T22:31:15.075Z,103706.00
2023-02-12T22:33:41.726Z,103703.00
2023-02-12T22:36:09.845Z,103703.00
2023-02-12T22:38:38.229Z,103699.00
2023-02-12T22:41:05.717Z,103693.00
2023-02-12T22:43:34.628Z,103696.00
2023-02-12T22:46:01.683Z,103689.00
2023-02-12T22:48:28.826Z,103695.00
2023-02-12T22:50:56.146Z,103687.00
2023-02-12T22:53:24.008Z,103694.00
2023-02-12T22:55:51.407Z,103690.00
2023-02-12T22:58:18.261Z,103691.00
2023-02-12T23:00:45.255Z,103689.00
2023-02-12T23:03:11.926Z,103691.00
2023-02-12T23:05:39.170Z,103679.00
2023-02-12T23:08:06.494Z,103681.00
2023-02-12T23:10:33.951Z,103687.00
2023-02-12T23:13:02.763Z,103692.00
2023-02-12T23:15:30.240Z,103685.00
2023-02-12T23:17:56.925Z,103685.00
2023-02-12T23:20:24.076Z,103682.00
2023-02-12T23:22:50.739Z,103679.00
2023-02-12T23:25:17.434Z,103675.00
2023-02-12T23:27:44.053Z,103668.00
2023-02-12T23:30:11.241Z,103671.00
2023-02-12T23:32:37.849Z,103660.00
2023-02-12T23:35:04.807Z,103668.00
2023-02-12T23:37:31.436Z,103660.00
2023-02-12T23:39:58.074Z,103667.00
2023-02-12T23:42:24.723Z,103671.00
2023-02-12T23:44:51.430Z,103675.00
2023-02-12T23:47:18.447Z,103657.00
2023-02-12T23:49:45.295Z,103657.00
2023-02-12T23:52:11.941Z,103664.00
2023-02-12T23:54:38.628Z,103656.00
2023-02-12T23:57:05.649Z,103653.00
2023-02-12T23:59:32.303Z,103655.00
